Time;durP1;ratioP1;P1;durP2;ratioP2;P2;SDS_P1;SDS_P2;PMS_P1;PMS_P2;Temp;Humidity;BMP_temperature;BMP_pressure;BME280_temperature;BME280_humidity;BME280_pressure;Samples;Min_cycle;Max_cycle;Signal;HPM_P1;HPM_P2
2024/01/05 00:02:07;;;;;;;;;;;17.90;60.20;;;;;;5084414;28;42946;-78
2024/01/05 00:04:32;;;;;;;;;;;17.60;60.20;;;;;;5080636;28;43048;-79
2024/01/05 00:06:58;;;;;;;;;;;17.90;60.20;;;;;;5084190;28;43115;-79
2024/01/05 00:09:23;;;;;;;;;;;17.70;60.00;;;;;;5064640;28;43051;-81
2024/01/05 00:11:51;;;;;;;;;;;17.90;60.20;;;;;;5083153;28;43025;-79
2024/01/05 00:14:17;;;;;;;;;;;17.70;59.90;;;;;;5082908;28;44498;-79
2024/01/05 00:16:43;;;;;;;;;;;17.80;59.90;;;;;;5083562;28;43292;-79
2024/01/05 00:19:10;;;;;;;;;;;17.90;59.90;;;;;;5061905;28;44210;-80
2024/01/05 00:21:35;;;;;;;;;;;17.80;59.90;;;;;;5067064;28;43291;-79
2024/01/05 00:24:01;;;;;;;;;;;17.70;60.10;;;;;;5084146;28;43424;-78
2024/01/05 00:26:30;;;;;;;;;;;17.80;59.80;;;;;;5083380;28;43028;-78
2024/01/05 00:28:58;;;;;;;;;;;17.80;60.00;;;;;;5084424;28;43658;-79
2024/01/05 00:31:24;;;;;;;;;;;17.80;60.20;;;;;;5081762;28;43080;-80
2024/01/05 00:33:49;;;;;;;;;;;17.80;59.20;;;;;;5083818;28;43031;-79
2024/01/05 00:36:15;;;;;;;;;;;17.70;60.40;;;;;;5083220;28;43017;-79
2024/01/05 00:38:46;;;;;;;;;;;17.80;60.00;;;;;;5082789;28;43942;-79
2024/01/05 00:41:12;;;;;;;;;;;17.70;59.90;;;;;;5082836;28;43534;-79
2024/01/05 00:43:38;;;;;;;;;;;17.80;60.40;;;;;;5082445;28;43057;-79
2024/01/05 00:46:03;;;;;;;;;;;17.70;60.00;;;;;;5083500;28;43020;-79
2024/01/05 00:48:29;;;;;;;;;;;17.60;60.20;;;;;;5087538;28;43949;-79
2024/01/05 00:50:54;;;;;;;;;;;17.60;60.10;;;;;;5086240;28;43230;-79
2024/01/05 00:53:20;;;;;;;;;;;17.60;60.70;;;;;;5085419;28;42940;-80
2024/01/05 00:55:46;;;;;;;;;;;;;;;;;;5086292;28;42881;-79
2024/01/05 00:58:11;;;;;;;;;;;17.80;60.60;;;;;;5079004;28;42894;-80
2024/01/05 01:00:37;;;;;;;;;;;17.80;60.80;;;;;;5085600;28;43005;-80
2024/01/05 01:03:02;;;;;;;;;;;17.70;60.90;;;;;;5080941;28;44023;-80
2024/01/05 01:05:28;;;;;;;;;;;17.70;61.00;;;;;;5074655;28;43708;-80
2024/01/05 01:07:54;;;;;;;;;;;17.60;61.20;;;;;;5083560;28;43748;-81
2024/01/05 01:10:19;;;;;;;;;;;17.70;60.90;;;;;;5085204;28;43198;-80
2024/01/05 01:12:45;;;;;;;;;;;18.00;61.00;;;;;;5087049;28;43061;-82
2024/01/05 01:15:10;;;;;;;;;;;17.70;60.50;;;;;;5083789;28;43225;-81
2024/01/05 01:17:35;;;;;;;;;;;17.70;59.80;;;;;;5067837;28;44304;-79
2024/01/05 01:20:01;;;;;;;;;;;17.70;60.50;;;;;;5084890;28;44073;-76
2024/01/05 01:22:26;;;;;;;;;;;17.70;60.70;;;;;;5087615;28;42881;-78
2024/01/05 01:24:52;;;;;;;;;;;17.70;61.20;;;;;;5068744;28;43187;-79
2024/01/05 01:27:17;;;;;;;;;;;17.70;61.20;;;;;;5087740;28;43635;-78
2024/01/05 01:29:43;;;;;;;;;;;17.80;61.40;;;;;;5087253;28;43029;-77
2024/01/05 01:32:09;;;;;;;;;;;17.80;61.30;;;;;;5063355;28;42906;-78
2024/01/05 01:34:35;;;;;;;;;;;17.70;59.90;;;;;;5086382;28;42991;-78
2024/01/05 01:37:00;;;;;;;;;;;17.70;61.50;;;;;;5087694;28;44063;-77
2024/01/05 01:39:26;;;;;;;;;;;;;;;;;;5086220;28;43002;-78
2024/01/05 01:41:52;;;;;;;;;;;17.70;61.20;;;;;;5087914;28;42875;-78
2024/01/05 01:44:17;;;;;;;;;;;17.70;61.10;;;;;;5087514;28;42891;-78
2024/01/05 01:46:43;;;;;;;;;;;17.80;60.80;;;;;;5065120;28;44517;-76
2024/01/05 01:49:08;;;;;;;;;;;17.60;60.70;;;;;;5085517;28;42796;-78
2024/01/05 01:51:34;;;;;;;;;;;17.80;60.50;;;;;;5087580;28;43046;-78
2024/01/05 01:54:00;;;;;;;;;;;17.80;60.90;;;;;;5086940;28;43054;-77
2024/01/05 01:56:25;;;;;;;;;;;17.80;60.70;;;;;;5086533;27;43979;-78
2024/01/05 01:58:51;;;;;;;;;;;17.80;60.90;;;;;;5087673;28;42944;-77
2024/01/05 02:01:17;;;;;;;;;;;17.90;60.70;;;;;;5086324;28;43373;-79
2024/01/05 02:03:42;;;;;;;;;;;17.60;60.50;;;;;;5086519;28;43094;-78
2024/01/05 02:06:08;;;;;;;;;;;17.80;60.60;;;;;;5086398;28;43666;-78
2024/01/05 02:08:34;;;;;;;;;;;17.60;60.40;;;;;;5074094;28;43130;-79
2024/01/05 02:10:59;;;;;;;;;;;17.80;64.90;;;;;;5086022;28;43280;-78
2024/01/05 02:13:25;;;;;;;;;;;17.80;63.00;;;;;;5086504;28;42799;-78
2024/01/05 02:15:50;;;;;;;;;;;;;;;;;;5085117;28;42963;-79
2024/01/05 02:18:16;;;;;;;;;;;17.80;61.50;;;;;;5086696;28;43174;-78
2024/01/05 02:20:46;;;;;;;;;;;17.70;60.80;;;;;;5086898;28;43653;-78
2024/01/05 02:23:27;;;;;;;;;;;17.80;60.60;;;;;;5068129;28;42903;-79
2024/01/05 02:25:53;;;;;;;;;;;17.80;59.80;;;;;;5087024;28;42885;-78
2024/01/05 02:28:19;;;;;;;;;;;17.70;59.80;;;;;;5086105;28;43129;-77
2024/01/05 02:30:45;;;;;;;;;;;17.70;59.60;;;;;;5086773;28;43215;-78
2024/01/05 02:33:10;;;;;;;;;;;17.70;59.00;;;;;;5084702;28;43656;-78
2024/01/05 02:35:36;;;;;;;;;;;17.70;59.30;;;;;;5074842;27;43759;-79
2024/01/05 02:38:01;;;;;;;;;;;17.70;58.50;;;;;;5066714;28;43060;-78
2024/01/05 02:40:27;;;;;;;;;;;17.70;58.20;;;;;;5073025;28;43458;-77
2024/01/05 02:42:52;;;;;;;;;;;17.70;58.90;;;;;;5086087;28;42949;-78
2024/01/05 02:45:21;;;;;;;;;;;17.60;59.20;;;;;;5069584;28;43400;-78
2024/01/05 02:47:55;;;;;;;;;;;17.70;58.80;;;;;;5080410;28;43012;-79
2024/01/05 02:50:21;;;;;;;;;;;17.60;58.40;;;;;;5085778;28;43000;-78
2024/01/05 02:52:46;;;;;;;;;;;17.60;60.80;;;;;;5073678;28;42972;-79
2024/01/05 02:55:12;;;;;;;;;;;17.60;59.70;;;;;;5066177;28;43437;-78
2024/01/05 02:57:38;;;;;;;;;;;17.70;61.50;;;;;;5086666;28;43292;-78
2024/01/05 03:00:04;;;;;;;;;;;17.60;61.40;;;;;;5085733;28;43313;-78
2024/01/05 03:02:30;;;;;;;;;;;17.70;60.00;;;;;;5086052;28;43509;-79
2024/01/05 03:04:55;;;;;;;;;;;17.50;60.50;;;;;;5085514;28;43647;-78
2024/01/05 03:07:21;;;;;;;;;;;17.70;63.20;;;;;;5085205;27;42992;-79
2024/01/05 03:09:47;;;;;;;;;;;;;;;;;;5073845;28;43135;-80
2024/01/05 03:12:12;;;;;;;;;;;17.60;62.70;;;;;;5084253;28;42929;-79
2024/01/05 03:14:38;;;;;;;;;;;17.60;57.70;;;;;;5086195;28;43968;-77
2024/01/05 03:17:03;;;;;;;;;;;17.60;59.60;;;;;;5085482;28;42936;-80
2024/01/05 03:19:29;;;;;;;;;;;17.60;59.20;;;;;;5085559;28;43709;-77
2024/01/05 03:21:55;;;;;;;;;;;17.60;59.40;;;;;;5085367;28;43593;-77
2024/01/05 03:24:20;;;;;;;;;;;17.60;59.40;;;;;;5082454;28;43097;-78
2024/01/05 03:26:46;;;;;;;;;;;17.60;59.50;;;;;;5089895;28;42949;-77
2024/01/05 03:29:12;;;;;;;;;;;17.50;59.40;;;;;;5085045;28;44041;-78
2024/01/05 03:31:37;;;;;;;;;;;17.60;59.40;;;;;;5085154;28;42967;-77
2024/01/05 03:34:03;;;;;;;;;;;17.50;59.40;;;;;;5084107;28;42929;-78
2024/01/05 03:36:29;;;;;;;;;;;17.70;61.90;;;;;;5065741;28;42977;-76
2024/01/05 03:38:55;;;;;;;;;;;17.80;60.90;;;;;;5065309;28;44325;-77
2024/01/05 03:41:20;;;;;;;;;;;17.60;59.30;;;;;;5083891;28;43070;-77
2024/01/05 03:43:46;;;;;;;;;;;17.50;58.40;;;;;;5082888;28;43500;-78
2024/01/05 03:46:12;;;;;;;;;;;17.60;58.90;;;;;;5084396;28;43005;-77
2024/01/05 03:48:38;;;;;;;;;;;17.60;58.40;;;;;;5084400;28;43234;-76
2024/01/05 03:51:03;;;;;;;;;;;17.60;65.00;;;;;;5084953;28;42857;-77
2024/01/05 03:53:29;;;;;;;;;;;17.70;60.80;;;;;;5084975;28;43898;-75
2024/01/05 03:55:55;;;;;;;;;;;;;;;;;;5066428;28;43089;-77
2024/01/05 03:58:20;;;;;;;;;;;17.80;63.60;;;;;;5084573;28;43576;-76
2024/01/05 04:00:46;;;;;;;;;;;;;;;;;;5084961;28;42953;-78
2024/01/05 04:03:12;;;;;;;;;;;;;;;;;;5084510;28;42987;-78
2024/01/05 04:05:38;;;;;;;;;;;17.80;61.00;;;;;;5066309;28;43093;-78
2024/01/05 04:08:04;;;;;;;;;;;18.00;63.70;;;;;;5084022;28;43086;-78
2024/01/05 04:10:29;;;;;;;;;;;;;;;;;;5064868;28;43279;-77
2024/01/05 04:12:55;;;;;;;;;;;;;;;;;;5066008;28;44716;-78
2024/01/05 04:15:21;;;;;;;;;;;17.70;63.80;;;;;;5082920;28;43273;-77
2024/01/05 04:17:47;;;;;;;;;;;17.70;61.30;;;;;;5084581;28;43421;-77
2024/01/05 04:20:12;;;;;;;;;;;17.70;61.40;;;;;;5084651;28;42997;-77
2024/01/05 04:22:38;;;;;;;;;;;17.60;60.70;;;;;;5084497;28;43014;-76
2024/01/05 04:25:04;;;;;;;;;;;17.60;60.90;;;;;;5084309;28;43028;-78
2024/01/05 04:27:29;;;;;;;;;;;17.60;60.80;;;;;;5084395;28;43295;-77
2024/01/05 04:29:55;;;;;;;;;;;17.50;60.80;;;;;;5084572;28;42998;-76
2024/01/05 04:32:20;;;;;;;;;;;17.40;60.70;;;;;;5083920;28;43396;-78
2024/01/05 04:34:46;;;;;;;;;;;;;;;;;;5083303;28;42942;-75
2024/01/05 04:37:11;;;;;;;;;;;17.50;61.20;;;;;;5065571;28;45735;-76
2024/01/05 04:39:38;;;;;;;;;;;17.60;60.90;;;;;;5084252;28;43103;-77
2024/01/05 04:42:04;;;;;;;;;;;17.50;60.80;;;;;;5083860;28;44305;-77
2024/01/05 04:44:29;;;;;;;;;;;17.60;61.00;;;;;;5083261;28;43036;-77
2024/01/05 04:46:55;;;;;;;;;;;17.50;61.20;;;;;;5084086;28;43132;-77
2024/01/05 04:49:20;;;;;;;;;;;17.50;61.60;;;;;;5083916;28;43663;-77
2024/01/05 04:51:46;;;;;;;;;;;17.50;61.60;;;;;;5083922;28;43424;-77
2024/01/05 04:54:12;;;;;;;;;;;;;;;;;;5083089;28;43000;-78
2024/01/05 04:56:37;;;;;;;;;;;17.80;64.70;;;;;;5083330;28;43644;-77
2024/01/05 04:59:03;;;;;;;;;;;17.70;63.60;;;;;;5083459;28;42908;-77
2024/01/05 05:01:29;;;;;;;;;;;;;;;;;;5083836;28;43623;-78
2024/01/05 05:03:54;;;;;;;;;;;17.80;61.80;;;;;;5083040;28;42966;-78
2024/01/05 05:06:20;;;;;;;;;;;;;;;;;;5083186;28;43092;-78
2024/01/05 05:08:46;;;;;;;;;;;;;;;;;;5065527;28;43443;-77
2024/01/05 05:11:12;;;;;;;;;;;;;;;;;;5061659;28;43863;-77
2024/01/05 05:13:38;;;;;;;;;;;17.60;63.00;;;;;;5078676;28;42878;-77
2024/01/05 05:16:03;;;;;;;;;;;17.60;62.90;;;;;;5082975;28;43470;-78
2024/01/05 05:18:29;;;;;;;;;;;;;;;;;;5082789;28;43338;-78
2024/01/05 05:20:55;;;;;;;;;;;17.60;61.50;;;;;;5083075;28;43135;-77
2024/01/05 05:23:20;;;;;;;;;;;17.80;59.00;;;;;;5083642;28;42934;-78
2024/01/05 05:25:46;;;;;;;;;;;17.60;59.20;;;;;;5083746;28;43056;-78
2024/01/05 05:28:11;;;;;;;;;;;17.60;57.00;;;;;;5082884;28;43130;-78
2024/01/05 05:30:37;;;;;;;;;;;17.60;57.20;;;;;;5083840;28;43028;-77
2024/01/05 05:33:03;;;;;;;;;;;16.90;57.60;;;;;;5088203;28;43008;-78
2024/01/05 05:35:28;;;;;;;;;;;17.60;57.80;;;;;;5087796;28;43023;-78
2024/01/05 05:37:55;;;;;;;;;;;17.50;57.90;;;;;;5087262;28;42904;-77
2024/01/05 05:40:21;;;;;;;;;;;17.50;57.90;;;;;;5086632;28;43648;-77
2024/01/05 05:42:47;;;;;;;;;;;17.40;57.30;;;;;;5090874;28;42803;-77
2024/01/05 05:45:13;;;;;;;;;;;17.50;57.40;;;;;;5077483;28;43669;-77
2024/01/05 05:47:38;;;;;;;;;;;17.50;57.90;;;;;;5087030;28;43091;-77
2024/01/05 05:50:07;;;;;;;;;;;17.50;57.40;;;;;;5086913;28;43927;-78
2024/01/05 05:52:34;;;;;;;;;;;17.50;57.80;;;;;;5086128;28;42959;-79
2024/01/05 05:55:00;;;;;;;;;;;17.60;58.20;;;;;;5086150;28;43725;-78
2024/01/05 05:57:26;;;;;;;;;;;17.50;59.50;;;;;;5086395;28;43202;-78
2024/01/05 05:59:51;;;;;;;;;;;17.50;60.80;;;;;;5086729;28;43360;-78
2024/01/05 06:02:17;;;;;;;;;;;17.70;61.00;;;;;;5086478;28;43140;-78
2024/01/05 06:04:42;;;;;;;;;;;17.50;61.70;;;;;;5087275;28;42910;-78
2024/01/05 06:07:08;;;;;;;;;;;17.60;61.90;;;;;;5068104;28;42994;-76
2024/01/05 06:09:33;;;;;;;;;;;17.60;57.90;;;;;;5086659;28;42956;-77
2024/01/05 06:11:59;;;;;;;;;;;17.60;58.50;;;;;;5086958;28;42940;-77
2024/01/05 06:14:24;;;;;;;;;;;17.50;57.60;;;;;;5084590;28;42956;-76
2024/01/05 06:16:50;;;;;;;;;;;17.50;57.70;;;;;;5086121;28;42994;-77
2024/01/05 06:19:16;;;;;;;;;;;17.60;57.70;;;;;;5086790;28;43472;-77
2024/01/05 06:21:41;;;;;;;;;;;17.50;57.40;;;;;;5087012;28;43199;-77
2024/01/05 06:24:07;;;;;;;;;;;17.50;57.50;;;;;;5065129;28;44814;-78
2024/01/05 06:26:32;;;;;;;;;;;17.50;57.60;;;;;;5081462;28;42978;-77
2024/01/05 06:28:58;;;;;;;;;;;17.50;57.50;;;;;;5086796;28;43049;-76
2024/01/05 06:31:24;;;;;;;;;;;17.60;57.60;;;;;;5068753;28;42962;-78
2024/01/05 06:33:50;;;;;;;;;;;17.50;57.60;;;;;;5085949;28;44536;-76
2024/01/05 06:36:15;;;;;;;;;;;17.60;57.70;;;;;;5085830;28;43221;-77
2024/01/05 06:38:41;;;;;;;;;;;17.60;58.30;;;;;;5083275;28;43589;-77
2024/01/05 06:41:06;;;;;;;;;;;17.50;57.70;;;;;;5086120;28;42962;-77
2024/01/05 06:43:32;;;;;;;;;;;17.40;57.70;;;;;;5057172;28;45072;-76
2024/01/05 06:45:57;;;;;;;;;;;17.40;58.10;;;;;;5061254;28;43009;-76
2024/01/05 06:48:23;;;;;;;;;;;17.50;57.40;;;;;;5072125;28;43602;-76
2024/01/05 06:50:48;;;;;;;;;;;17.50;57.30;;;;;;5086030;28;42950;-76
2024/01/05 06:53:14;;;;;;;;;;;17.50;57.30;;;;;;5086413;28;43448;-78
2024/01/05 06:55:39;;;;;;;;;;;17.60;57.40;;;;;;5087176;28;43044;-77
2024/01/05 06:58:05;;;;;;;;;;;17.50;57.40;;;;;;5084399;28;44200;-78
2024/01/05 07:00:31;;;;;;;;;;;17.50;57.60;;;;;;5064160;28;43124;-77
2024/01/05 07:02:57;;;;;;;;;;;17.60;57.70;;;;;;5083452;28;43150;-78
2024/01/05 07:05:22;;;;;;;;;;;17.50;57.60;;;;;;5085728;28;42958;-78
2024/01/05 07:07:48;;;;;;;;;;;17.50;57.70;;;;;;5085268;28;43765;-78
2024/01/05 07:10:14;;;;;;;;;;;17.50;57.70;;;;;;5084067;28;42951;-77
2024/01/05 07:12:39;;;;;;;;;;;17.60;57.70;;;;;;5085620;28;43839;-78
2024/01/05 07:15:06;;;;;;;;;;;17.50;58.30;;;;;;5086161;28;42881;-79
2024/01/05 07:17:33;;;;;;;;;;;17.40;57.50;;;;;;5062167;28;63716;-78
2024/01/05 07:19:59;;;;;;;;;;;17.50;57.50;;;;;;5077701;28;43142;-76
2024/01/05 07:22:25;;;;;;;;;;;17.50;58.10;;;;;;5085281;28;43242;-79
2024/01/05 07:24:50;;;;;;;;;;;17.50;58.20;;;;;;5083811;28;43131;-77
2024/01/05 07:27:16;;;;;;;;;;;17.50;58.20;;;;;;5085004;28;42976;-78
2024/01/05 07:29:42;;;;;;;;;;;17.50;57.40;;;;;;5085460;28;43199;-78
2024/01/05 07:32:08;;;;;;;;;;;17.40;57.90;;;;;;5083968;28;43507;-77
2024/01/05 07:34:33;;;;;;;;;;;17.50;57.90;;;;;;5082671;28;42923;-79
2024/01/05 07:36:59;;;;;;;;;;;17.40;57.40;;;;;;5085877;28;43271;-76
2024/01/05 07:39:24;;;;;;;;;;;17.40;58.00;;;;;;5080119;28;42997;-78
2024/01/05 07:41:50;;;;;;;;;;;17.20;57.90;;;;;;5082891;28;43716;-77
2024/01/05 07:44:16;;;;;;;;;;;17.40;57.90;;;;;;5072297;28;42983;-77
2024/01/05 07:46:42;;;;;;;;;;;17.50;58.10;;;;;;5077003;28;43346;-77
2024/01/05 07:49:07;;;;;;;;;;;17.50;58.00;;;;;;5079616;28;42921;-77
2024/01/05 07:51:33;;;;;;;;;;;18.00;57.70;;;;;;5084288;28;43074;-79
2024/01/05 07:53:58;;;;;;;;;;;17.50;57.50;;;;;;5071881;28;42943;-78
2024/01/05 07:56:24;;;;;;;;;;;17.50;58.30;;;;;;5084470;28;43465;-77
2024/01/05 07:58:50;;;;;;;;;;;17.50;57.80;;;;;;5089357;28;42918;-76
2024/01/05 08:01:18;;;;;;;;;;;17.40;57.30;;;;;;5075367;28;42896;-77
2024/01/05 08:03:44;;;;;;;;;;;17.40;57.40;;;;;;5083037;28;43382;-78
2024/01/05 08:06:13;;;;;;;;;;;17.40;57.30;;;;;;5083673;28;43793;-76
2024/01/05 08:08:39;;;;;;;;;;;17.40;57.60;;;;;;5084446;28;43059;-77
2024/01/05 08:11:05;;;;;;;;;;;17.50;58.10;;;;;;5084395;28;42930;-76
2024/01/05 08:13:31;;;;;;;;;;;17.40;57.80;;;;;;5084293;28;43661;-78
2024/01/05 08:15:56;;;;;;;;;;;17.20;58.30;;;;;;5083645;28;43730;-78
2024/01/05 08:18:22;;;;;;;;;;;17.50;58.00;;;;;;5083257;28;43170;-78
2024/01/05 08:20:47;;;;;;;;;;;17.40;58.60;;;;;;5082446;28;42993;-79
2024/01/05 08:23:13;;;;;;;;;;;17.50;58.90;;;;;;5084211;28;43001;-78
2024/01/05 08:25:38;;;;;;;;;;;17.40;58.20;;;;;;5084283;28;44372;-78
2024/01/05 08:28:04;;;;;;;;;;;17.50;56.90;;;;;;5082579;28;43168;-78
2024/01/05 08:30:30;;;;;;;;;;;17.40;55.70;;;;;;5080665;28;43499;-77
2024/01/05 08:32:56;;;;;;;;;;;17.40;55.20;;;;;;5081753;28;42999;-79
2024/01/05 08:35:21;;;;;;;;;;;17.50;54.60;;;;;;5082771;28;43157;-78
2024/01/05 08:37:47;;;;;;;;;;;17.40;54.60;;;;;;5078332;28;43211;-78
2024/01/05 08:40:12;;;;;;;;;;;17.30;53.20;;;;;;5081822;28;43112;-78
2024/01/05 08:42:38;;;;;;;;;;;17.40;54.10;;;;;;5077565;28;42933;-78
2024/01/05 08:45:04;;;;;;;;;;;17.30;54.70;;;;;;5079204;28;43051;-79
2024/01/05 08:47:29;;;;;;;;;;;17.40;53.80;;;;;;5081500;28;43307;-78
2024/01/05 08:49:55;;;;;;;;;;;17.30;54.50;;;;;;5082965;28;43342;-79
2024/01/05 08:52:20;;;;;;;;;;;17.40;54.20;;;;;;5083080;28;42991;-79
2024/01/05 08:54:46;;;;;;;;;;;17.30;53.80;;;;;;5082738;28;43560;-81
2024/01/05 08:57:11;;;;;;;;;;;17.50;53.60;;;;;;5082448;28;43011;-81
2024/01/05 08:59:38;;;;;;;;;;;17.30;55.00;;;;;;5081753;28;43335;-84
2024/01/05 09:02:05;;;;;;;;;;;17.30;54.10;;;;;;5082507;28;42965;-83
2024/01/05 09:04:31;;;;;;;;;;;17.40;53.30;;;;;;5073593;28;43123;-81
2024/01/05 09:06:58;;;;;;;;;;;17.20;53.20;;;;;;5074301;28;43288;-83
2024/01/05 09:09:24;;;;;;;;;;;17.90;53.90;;;;;;5080518;28;42883;-81
2024/01/05 09:11:49;;;;;;;;;;;17.40;53.50;;;;;;5076189;27;43107;-82
2024/01/05 09:14:15;;;;;;;;;;;17.30;54.00;;;;;;5066765;28;43766;-80
2024/01/05 09:16:40;;;;;;;;;;;17.20;53.60;;;;;;5066938;28;43713;-79
2024/01/05 09:19:07;;;;;;;;;;;17.20;54.20;;;;;;5067179;28;43164;-79
2024/01/05 09:21:32;;;;;;;;;;;17.20;53.40;;;;;;5084398;28;43082;-77
2024/01/05 09:23:58;;;;;;;;;;;17.20;53.60;;;;;;5084137;28;43998;-80
2024/01/05 09:26:23;;;;;;;;;;;17.30;53.60;;;;;;5085010;28;43157;-80
2024/01/05 09:28:49;;;;;;;;;;;17.20;54.20;;;;;;5080877;28;43115;-79
2024/01/05 09:31:15;;;;;;;;;;;17.20;54.30;;;;;;5085003;28;42883;-78
2024/01/05 09:33:40;;;;;;;;;;;17.20;54.30;;;;;;5084325;28;42941;-78
2024/01/05 09:36:06;;;;;;;;;;;17.20;54.00;;;;;;5085442;28;43173;-78
2024/01/05 09:38:31;;;;;;;;;;;17.20;54.70;;;;;;5018129;28;1884861;-79
2024/01/05 09:40:57;;;;;;;;;;;17.10;55.00;;;;;;5087046;28;42886;-79
2024/01/05 09:43:23;;;;;;;;;;;17.20;55.30;;;;;;5079337;28;43065;-77
2024/01/05 09:45:52;;;;;;;;;;;17.10;55.30;;;;;;5079886;28;42967;-78
2024/01/05 09:48:21;;;;;;;;;;;17.20;55.30;;;;;;5086847;28;43579;-78
2024/01/05 09:50:50;;;;;;;;;;;17.20;55.70;;;;;;5086502;28;43053;-79
2024/01/05 09:53:17;;;;;;;;;;;17.20;56.60;;;;;;5085791;28;43763;-79
2024/01/05 09:55:49;;;;;;;;;;;17.30;56.40;;;;;;5085965;28;42992;-78
2024/01/05 09:58:16;;;;;;;;;;;17.30;56.00;;;;;;5086999;28;43244;-79
2024/01/05 10:00:47;;;;;;;;;;;17.30;56.90;;;;;;5086735;28;43099;-78
2024/01/05 10:03:20;;;;;;;;;;;17.40;57.00;;;;;;5086375;28;43058;-79
2024/01/05 10:05:45;;;;;;;;;;;17.40;56.20;;;;;;5085590;28;42930;-78
2024/01/05 10:08:11;;;;;;;;;;;17.40;57.20;;;;;;5086654;28;42830;-79
2024/01/05 10:10:49;;;;;;;;;;;17.50;57.50;;;;;;5086924;28;42930;-77
2024/01/05 10:13:15;;;;;;;;;;;17.40;56.50;;;;;;5086609;28;43628;-77
2024/01/05 10:15:54;;;;;;;;;;;17.50;57.80;;;;;;5094758;28;42959;-78
2024/01/05 10:18:20;;;;;;;;;;;17.40;56.50;;;;;;5087755;28;42932;-79
2024/01/05 10:20:45;;;;;;;;;;;17.40;58.20;;;;;;5087260;28;42876;-79
2024/01/05 10:23:13;;;;;;;;;;;17.50;57.80;;;;;;5078501;28;43291;-79
2024/01/05 10:25:39;;;;;;;;;;;17.40;57.50;;;;;;5077251;28;43410;-79
2024/01/05 10:28:24;;;;;;;;;;;17.50;57.80;;;;;;5077035;28;43718;-79
2024/01/05 10:30:50;;;;;;;;;;;17.50;57.10;;;;;;5074959;28;43081;-81
2024/01/05 10:33:16;;;;;;;;;;;17.50;57.10;;;;;;5075754;28;43427;-79
2024/01/05 10:35:42;;;;;;;;;;;18.40;57.80;;;;;;5074054;28;43214;-78
2024/01/05 10:38:08;;;;;;;;;;;17.50;56.50;;;;;;5058745;28;45543;-78
2024/01/05 10:40:34;;;;;;;;;;;17.50;56.70;;;;;;5080582;28;43005;-79
2024/01/05 10:43:06;;;;;;;;;;;17.50;56.70;;;;;;5082685;28;43902;-78
2024/01/05 10:45:33;;;;;;;;;;;17.50;56.90;;;;;;5083714;28;43024;-78
2024/01/05 10:47:59;;;;;;;;;;;17.50;56.90;;;;;;5083530;28;43944;-80
2024/01/05 10:50:25;;;;;;;;;;;16.80;56.80;;;;;;5086404;28;42896;-82
2024/01/05 10:52:52;;;;;;;;;;;17.40;57.70;;;;;;5081207;28;43154;-80
2024/01/05 10:55:19;;;;;;;;;;;17.30;57.90;;;;;;5085905;28;43021;-79
2024/01/05 10:57:45;;;;;;;;;;;17.50;58.00;;;;;;5086308;28;43491;-84
2024/01/05 11:00:13;;;;;;;;;;;17.50;60.90;;;;;;5085851;28;43061;-77
2024/01/05 11:02:40;;;;;;;;;;;17.50;60.00;;;;;;5082221;28;43438;-79
2024/01/05 11:05:07;;;;;;;;;;;;;;;;;;5081479;28;42988;-79
2024/01/05 11:07:34;;;;;;;;;;;17.40;61.00;;;;;;5085378;28;44471;-80
2024/01/05 11:10:18;;;;;;;;;;;17.50;61.10;;;;;;5082264;28;43040;-79
2024/01/05 11:13:02;;;;;;;;;;;17.60;61.30;;;;;;5082781;28;42964;-78
2024/01/05 11:15:45;;;;;;;;;;;17.50;61.10;;;;;;5080599;28;43012;-79
2024/01/05 11:18:14;;;;;;;;;;;17.50;60.00;;;;;;5084456;28;43588;-78
2024/01/05 11:20:40;;;;;;;;;;;;;;;;;;5073508;28;43138;-81
2024/01/05 11:23:08;;;;;;;;;;;17.60;61.10;;;;;;5080446;28;43644;-77
2024/01/05 11:25:34;;;;;;;;;;;17.50;61.00;;;;;;5081873;28;43021;-83
2024/01/05 11:27:59;;;;;;;;;;;17.50;61.00;;;;;;5081604;28;43486;-78
2024/01/05 11:30:45;;;;;;;;;;;17.40;60.40;;;;;;5085378;28;43077;-83
2024/01/05 11:33:31;;;;;;;;;;;17.40;60.70;;;;;;5081543;28;42826;-85
2024/01/05 11:35:56;;;;;;;;;;;17.40;60.70;;;;;;5072543;28;43009;-86
2024/01/05 11:38:26;;;;;;;;;;;17.50;60.80;;;;;;5065101;28;45661;-86
2024/01/05 11:40:51;;;;;;;;;;;17.60;60.80;;;;;;5075819;28;43093;-84
2024/01/05 11:43:37;;;;;;;;;;;17.60;60.60;;;;;;5062891;28;43378;-83
2024/01/05 11:46:03;;;;;;;;;;;17.50;60.40;;;;;;5082837;28;43032;-83
2024/01/05 11:48:34;;;;;;;;;;;17.50;60.80;;;;;;5082750;28;42934;-80
2024/01/05 11:51:06;;;;;;;;;;;17.40;61.00;;;;;;5079959;28;43187;-75
2024/01/05 11:53:32;;;;;;;;;;;17.50;61.10;;;;;;5079924;28;43219;-84
2024/01/05 11:55:58;;;;;;;;;;;17.40;59.30;;;;;;5083199;28;43064;-80
2024/01/05 11:58:28;;;;;;;;;;;17.60;59.50;;;;;;5061001;28;45594;-79
2024/01/05 12:00:55;;;;;;;;;;;17.50;59.50;;;;;;5082567;28;42961;-85
2024/01/05 12:03:23;;;;;;;;;;;15.20;58.00;;;;;;5069080;28;42879;-83
2024/01/05 12:05:57;;;;;;;;;;;17.50;59.40;;;;;;5083266;28;42941;-79
2024/01/05 12:08:22;;;;;;;;;;;17.30;59.70;;;;;;5074661;28;42945;-87
2024/01/05 12:10:53;;;;;;;;;;;17.50;60.80;;;;;;5063354;28;42908;-80
2024/01/05 12:13:23;;;;;;;;;;;17.50;60.70;;;;;;5074142;28;44650;-81
2024/01/05 12:15:51;;;;;;;;;;;17.40;58.50;;;;;;5082519;28;43473;-82
2024/01/05 12:18:18;;;;;;;;;;;17.50;60.80;;;;;;5078136;28;44539;-83
2024/01/05 12:20:43;;;;;;;;;;;17.50;61.20;;;;;;5077036;28;43084;-84
2024/01/05 12:23:10;;;;;;;;;;;17.40;61.20;;;;;;5077803;28;43179;-79
2024/01/05 12:25:35;;;;;;;;;;;17.40;61.70;;;;;;5068578;28;44993;-78
2024/01/05 12:28:01;;;;;;;;;;;17.50;61.90;;;;;;5070495;28;43049;-78
2024/01/05 12:30:27;;;;;;;;;;;17.50;61.80;;;;;;5085357;28;43179;-78
2024/01/05 12:32:53;;;;;;;;;;;17.40;62.10;;;;;;5089005;28;43273;-79
2024/01/05 12:35:18;;;;;;;;;;;17.50;61.80;;;;;;5081940;28;43017;-78
2024/01/05 12:37:53;;;;;;;;;;;17.60;62.10;;;;;;5084522;28;43425;-79
2024/01/05 12:40:28;;;;;;;;;;;17.60;62.90;;;;;;5082762;28;43021;-78
2024/01/05 12:42:54;;;;;;;;;;;17.50;60.50;;;;;;5080795;28;43371;-78
2024/01/05 12:45:22;;;;;;;;;;;17.50;62.90;;;;;;5077144;28;43447;-78
2024/01/05 12:47:49;;;;;;;;;;;17.70;63.20;;;;;;5081851;28;44389;-80
2024/01/05 12:50:24;;;;;;;;;;;17.50;63.60;;;;;;5078710;28;42875;-79
2024/01/05 12:52:50;;;;;;;;;;;17.60;61.40;;;;;;5076309;28;44116;-80
2024/01/05 12:55:28;;;;;;;;;;;17.80;62.10;;;;;;5075388;28;43060;-77
2024/01/05 12:57:59;;;;;;;;;;;17.70;60.60;;;;;;5073705;28;43556;-78
2024/01/05 13:00:26;;;;;;;;;;;17.70;63.20;;;;;;5078149;28;43055;-78
2024/01/05 13:02:51;;;;;;;;;;;17.60;64.70;;;;;;5080892;28;43114;-79
2024/01/05 13:05:23;;;;;;;;;;;17.70;64.10;;;;;;5078038;28;43004;-79
2024/01/05 13:07:49;;;;;;;;;;;17.60;63.40;;;;;;5061696;28;45618;-79
2024/01/05 13:10:14;;;;;;;;;;;17.60;63.70;;;;;;5077669;28;43085;-79
2024/01/05 13:12:41;;;;;;;;;;;17.60;63.80;;;;;;5082765;28;43420;-79
2024/01/05 13:15:07;;;;;;;;;;;17.90;64.10;;;;;;5062870;28;43021;-79
2024/01/05 13:17:33;;;;;;;;;;;17.70;64.20;;;;;;5083135;28;43042;-79
2024/01/05 13:19:59;;;;;;;;;;;;;;;;;;5080597;28;43027;-78
2024/01/05 13:22:24;;;;;;;;;;;17.70;64.80;;;;;;5067524;28;44042;-80
2024/01/05 13:24:50;;;;;;;;;;;;;;;;;;5079283;28;43292;-79
2024/01/05 13:27:15;;;;;;;;;;;17.80;63.60;;;;;;5071786;28;43474;-79
2024/01/05 13:29:41;;;;;;;;;;;17.90;65.20;;;;;;5079059;28;43104;-79
2024/01/05 13:32:06;;;;;;;;;;;17.60;64.00;;;;;;5074340;28;43802;-79
2024/01/05 13:34:32;;;;;;;;;;;17.80;64.70;;;;;;5080781;28;43027;-79
2024/01/05 13:37:00;;;;;;;;;;;17.60;65.50;;;;;;5073819;28;43580;-78
2024/01/05 13:39:26;;;;;;;;;;;17.80;66.10;;;;;;5080760;28;42930;-79
2024/01/05 13:41:51;;;;;;;;;;;17.80;65.70;;;;;;5077425;28;43037;-78
2024/01/05 13:44:17;;;;;;;;;;;17.90;66.00;;;;;;5068557;28;43074;-79
2024/01/05 13:46:43;;;;;;;;;;;17.90;65.30;;;;;;5076462;28;44342;-78
2024/01/05 13:49:08;;;;;;;;;;;17.70;65.20;;;;;;5079037;28;43010;-79
2024/01/05 13:51:33;;;;;;;;;;;17.50;65.20;;;;;;5078051;28;42955;-79
2024/01/05 13:53:59;;;;;;;;;;;17.80;65.40;;;;;;5084601;28;43929;-79
2024/01/05 13:56:26;;;;;;;;;;;17.80;65.30;;;;;;5086633;28;43804;-78
2024/01/05 13:58:52;;;;;;;;;;;17.90;66.00;;;;;;5082290;28;42836;-79
2024/01/05 14:01:17;;;;;;;;;;;17.90;63.70;;;;;;5086416;28;43962;-79
2024/01/05 14:03:43;;;;;;;;;;;17.90;63.50;;;;;;5085690;28;42971;-79
2024/01/05 14:06:09;;;;;;;;;;;17.80;63.50;;;;;;5067678;28;44855;-79
2024/01/05 14:08:34;;;;;;;;;;;17.70;63.80;;;;;;5086271;28;42995;-80
2024/01/05 14:11:00;;;;;;;;;;;17.70;63.40;;;;;;5085887;28;43860;-80
2024/01/05 14:13:26;;;;;;;;;;;17.80;63.70;;;;;;5086223;28;43158;-80
2024/01/05 14:15:51;;;;;;;;;;;17.70;63.20;;;;;;5086316;28;43543;-79
2024/01/05 14:18:17;;;;;;;;;;;17.70;63.80;;;;;;5085971;28;42956;-79
2024/01/05 14:20:42;;;;;;;;;;;17.80;64.00;;;;;;5085746;28;42972;-79